Time;durP1;ratioP1;P1;durP2;ratioP2;P2;SDS_P1;SDS_P2;PMS_P1;PMS_P2;Temp;Humidity;BMP_temperature;BMP_pressure;BME280_temperature;BME280_humidity;BME280_pressure;Samples;Min_cycle;Max_cycle;Signal;HPM_P1;HPM_P2
2023/05/04 00:01:43;;;;;;;15.57;7.80;;;;;;;;;;5090206;28;20316;-77
2023/05/04 00:04:08;;;;;;;14.20;7.63;;;;;;;;;;5091798;28;20028;-77
2023/05/04 00:06:34;;;;;;;16.50;7.80;;;;;;;;;;5091818;28;20028;-77
2023/05/04 00:09:00;;;;;;;13.33;8.70;;;;;;;;;;5091802;28;20043;-76
2023/05/04 00:11:25;;;;;;;13.30;8.60;;;;;;;;;;5091686;28;20042;-77
2023/05/04 00:13:52;;;;;;;12.37;7.87;;;;;;;;;;5090767;28;20042;-76
2023/05/04 00:16:17;;;;;;;12.83;8.23;;;;;;;;;;5092091;28;20036;-77
2023/05/04 00:18:43;;;;;;;16.17;8.87;;;;;;;;;;5091587;28;20032;-75
2023/05/04 00:21:09;;;;;;;11.40;7.70;;;;;;;;;;5108946;28;20020;-77
2023/05/04 00:23:34;;;;;;;13.83;8.17;;;;;;;;;;5110871;28;20035;-76
2023/05/04 00:26:00;;;;;;;13.77;8.87;;;;;;;;;;5110462;28;20065;-76
2023/05/04 00:28:26;;;;;;;11.00;8.20;;;;;;;;;;5109997;28;20035;-76
2023/05/04 00:30:55;;;;;;;12.40;9.23;;;;;;;;;;5111082;28;20456;-76
2023/05/04 00:33:20;;;;;;;13.33;8.33;;;;;;;;;;5110210;28;20359;-77
2023/05/04 00:35:46;;;;;;;14.13;9.27;;;;;;;;;;5109924;28;20088;-77
2023/05/04 00:38:12;;;;;;;17.43;9.13;;;;;;;;;;5089876;28;20028;-77
2023/05/04 00:40:41;;;;;;;15.00;9.17;;;;;;;;;;5089978;28;20503;-76
2023/05/04 00:43:07;;;;;;;13.53;9.67;;;;;;;;;;5089896;28;20055;-75
2023/05/04 00:45:33;;;;;;;15.03;8.90;;;;;;;;;;5102206;28;20476;-77
2023/05/04 00:47:59;;;;;;;16.70;8.83;;;;;;;;;;5109798;28;20134;-77
2023/05/04 00:50:26;;;;;;;15.37;9.03;;;;;;;;;;5109980;28;20534;-76
2023/05/04 00:52:54;;;;;;;15.47;9.77;;;;;;;;;;5110944;28;20115;-75
2023/05/04 00:55:20;;;;;;;15.87;9.57;;;;;;;;;;5111711;28;20395;-76
2023/05/04 00:57:48;;;;;;;17.67;8.77;;;;;;;;;;5110313;27;20055;-78
2023/05/04 01:00:14;;;;;;;15.70;10.17;;;;;;;;;;5108697;28;20138;-76
2023/05/04 01:02:40;;;;;;;14.07;8.97;;;;;;;;;;5091202;28;20169;-77
2023/05/04 01:05:07;;;;;;;15.97;9.37;;;;;;;;;;5096160;28;20141;-77
2023/05/04 01:07:57;;;;;;;14.53;9.10;;;;;;;;;;5093040;28;20040;-78
2023/05/04 01:10:31;;;;;;;15.30;8.80;;;;;;;;;;5111077;28;20024;-77
2023/05/04 01:13:06;;;;;;;15.87;9.77;;;;;;;;;;5111248;28;20490;-76
2023/05/04 01:15:33;;;;;;;18.30;10.00;;;;;;;;;;5108792;28;20050;-77
2023/05/04 01:17:59;;;;;;;18.33;10.10;;;;;;;;;;5111051;28;20373;-75
2023/05/04 01:20:24;;;;;;;17.30;9.87;;;;;;;;;;5101591;28;20114;-76
2023/05/04 01:22:50;;;;;;;16.70;10.20;;;;;;;;;;5090427;28;20027;-75
2023/05/04 01:25:16;;;;;;;14.40;9.03;;;;;;;;;;5089970;28;20052;-75
2023/05/04 01:27:46;;;;;;;18.33;10.93;;;;;;;;;;5088864;28;20039;-77
2023/05/04 01:30:14;;;;;;;15.60;9.27;;;;;;;;;;5089077;28;20547;-76
2023/05/04 01:32:40;;;;;;;19.30;9.73;;;;;;;;;;5089619;28;20049;-76
2023/05/04 01:35:07;;;;;;;20.70;9.10;;;;;;;;;;5094985;28;20034;-77
2023/05/04 01:37:33;;;;;;;20.77;10.33;;;;;;;;;;5110588;28;20485;-75
2023/05/04 01:39:58;;;;;;;15.60;9.50;;;;;;;;;;5110911;28;20028;-75
2023/05/04 01:42:24;;;;;;;14.20;9.67;;;;;;;;;;5109504;28;20475;-77
2023/05/04 01:44:50;;;;;;;18.67;10.27;;;;;;;;;;5109511;28;20031;-76
2023/05/04 01:47:16;;;;;;;16.70;9.80;;;;;;;;;;5088968;28;20052;-77
2023/05/04 01:49:41;;;;;;;18.20;10.63;;;;;;;;;;5089131;28;20024;-77
2023/05/04 01:52:10;;;;;;;19.63;10.07;;;;;;;;;;5070358;28;20056;-76
2023/05/04 01:54:35;;;;;;;15.73;9.53;;;;;;;;;;5069786;28;20598;-77
2023/05/04 01:57:01;;;;;;;20.00;10.40;;;;;;;;;;5108497;28;20119;-77
2023/05/04 01:59:26;;;;;;;15.60;9.93;;;;;;;;;;5108767;28;20027;-76
2023/05/04 02:01:52;;;;;;;17.53;10.20;;;;;;;;;;5109638;28;20400;-77
2023/05/04 02:04:17;;;;;;;19.77;9.83;;;;;;;;;;5108922;28;20028;-76
2023/05/04 02:06:43;;;;;;;17.53;9.57;;;;;;;;;;5101442;28;20499;-76
2023/05/04 02:09:08;;;;;;;15.37;10.80;;;;;;;;;;5090090;28;20101;-75
2023/05/04 02:11:34;;;;;;;17.63;9.57;;;;;;;;;;5103086;28;20477;-77
2023/05/04 02:13:59;;;;;;;20.57;9.47;;;;;;;;;;5109959;28;20111;-77
2023/05/04 02:16:25;;;;;;;15.73;9.90;;;;;;;;;;5110225;28;20085;-77
2023/05/04 02:18:51;;;;;;;15.37;9.43;;;;;;;;;;5110979;28;20027;-76
2023/05/04 02:21:16;;;;;;;16.50;10.47;;;;;;;;;;5110606;28;20039;-76
2023/05/04 02:23:42;;;;;;;17.40;10.23;;;;;;;;;;5110470;28;20463;-76
2023/05/04 02:26:07;;;;;;;20.47;10.60;;;;;;;;;;5108690;28;20118;-77
2023/05/04 02:28:33;;;;;;;32.47;12.43;;;;;;;;;;5110359;28;20038;-76
2023/05/04 02:30:58;;;;;;;18.03;10.30;;;;;;;;;;5110433;28;20436;-77
2023/05/04 02:33:24;;;;;;;19.33;10.47;;;;;;;;;;5111930;28;20478;-76
2023/05/04 02:35:50;;;;;;;18.97;10.37;;;;;;;;;;5112381;28;20035;-76
2023/05/04 02:38:16;;;;;;;19.67;10.23;;;;;;;;;;5112449;28;20036;-77
2023/05/04 02:40:41;;;;;;;19.43;10.10;;;;;;;;;;5112145;28;20036;-77
2023/05/04 02:43:07;;;;;;;17.37;10.57;;;;;;;;;;5112609;28;20450;-76
2023/05/04 02:45:33;;;;;;;15.03;9.53;;;;;;;;;;5114494;28;20382;-77
2023/05/04 02:47:59;;;;;;;15.53;8.90;;;;;;;;;;5112722;28;20196;-76
2023/05/04 02:50:24;;;;;;;15.97;10.60;;;;;;;;;;5114271;28;20429;-76
2023/05/04 02:52:50;;;;;;;16.70;9.83;;;;;;;;;;5112485;28;20295;-77
2023/05/04 02:55:16;;;;;;;17.37;10.23;;;;;;;;;;5112001;28;20045;-77
2023/05/04 02:57:41;;;;;;;19.10;10.50;;;;;;;;;;5093890;28;20024;-76
2023/05/04 03:00:08;;;;;;;17.77;9.70;;;;;;;;;;5093376;28;20456;-76
2023/05/04 03:02:33;;;;;;;16.67;9.77;;;;;;;;;;5113729;28;20031;-77
2023/05/04 03:04:59;;;;;;;16.77;9.73;;;;;;;;;;5113247;28;20070;-76
2023/05/04 03:07:25;;;;;;;14.97;10.07;;;;;;;;;;5093621;28;20314;-74
2023/05/04 03:09:50;;;;;;;17.27;10.10;;;;;;;;;;5093052;28;20039;-75
2023/05/04 03:12:16;;;;;;;20.83;10.73;;;;;;;;;;5091860;28;20054;-76
2023/05/04 03:14:41;;;;;;;25.03;10.10;;;;;;;;;;5093063;28;20036;-76
2023/05/04 03:17:07;;;;;;;19.50;11.07;;;;;;;;;;5108718;28;20036;-77
2023/05/04 03:19:32;;;;;;;18.50;10.40;;;;;;;;;;5093775;28;20039;-77
2023/05/04 03:21:58;;;;;;;23.03;10.83;;;;;;;;;;5105723;28;20065;-75
2023/05/04 03:24:24;;;;;;;20.17;10.30;;;;;;;;;;5112597;28;20038;-75
2023/05/04 03:26:49;;;;;;;14.83;9.33;;;;;;;;;;5112175;28;20024;-76
2023/05/04 03:29:15;;;;;;;16.43;9.70;;;;;;;;;;5102271;28;20031;-75
2023/05/04 03:31:41;;;;;;;21.57;11.33;;;;;;;;;;5092806;28;20036;-77
2023/05/04 03:34:08;;;;;;;21.90;10.10;;;;;;;;;;5092957;28;20099;-77
2023/05/04 03:36:34;;;;;;;18.47;10.13;;;;;;;;;;5101519;28;20023;-76
2023/05/04 03:39:00;;;;;;;20.97;10.53;;;;;;;;;;5112241;28;20034;-77
2023/05/04 03:41:25;;;;;;;16.83;10.00;;;;;;;;;;5112383;28;20348;-75
2023/05/04 03:43:50;;;;;;;18.53;9.90;;;;;;;;;;5111018;28;20053;-76
2023/05/04 03:46:16;;;;;;;17.33;10.17;;;;;;;;;;5105176;28;20081;-76
2023/05/04 03:48:41;;;;;;;18.73;10.47;;;;;;;;;;5092307;28;20083;-77
2023/05/04 03:51:07;;;;;;;14.37;9.70;;;;;;;;;;5092714;28;20034;-77
2023/05/04 03:53:34;;;;;;;17.33;10.10;;;;;;;;;;5092178;28;20277;-78
2023/05/04 03:56:00;;;;;;;16.80;10.60;;;;;;;;;;5092431;28;20024;-78
2023/05/04 03:58:25;;;;;;;16.13;10.03;;;;;;;;;;5092394;28;20028;-77
2023/05/04 04:00:51;;;;;;;15.33;9.80;;;;;;;;;;5091793;28;20455;-76
2023/05/04 04:03:17;;;;;;;14.57;10.03;;;;;;;;;;5092377;28;20328;-77
2023/05/04 04:05:43;;;;;;;16.73;10.97;;;;;;;;;;5092248;28;20051;-76
2023/05/04 04:08:08;;;;;;;15.90;9.93;;;;;;;;;;5092492;28;20028;-77
2023/05/04 04:10:35;;;;;;;21.50;11.50;;;;;;;;;;5092445;28;20404;-77
2023/05/04 04:13:00;;;;;;;16.47;10.37;;;;;;;;;;5091392;28;20130;-76
2023/05/04 04:15:26;;;;;;;18.83;10.20;;;;;;;;;;5090850;28;20031;-78
2023/05/04 04:17:51;;;;;;;19.30;10.63;;;;;;;;;;5110262;28;20040;-76
2023/05/04 04:20:17;;;;;;;20.60;11.40;;;;;;;;;;5110951;28;20046;-77
2023/05/04 04:22:43;;;;;;;19.57;11.13;;;;;;;;;;5095097;28;20407;-75
2023/05/04 04:25:09;;;;;;;19.47;10.33;;;;;;;;;;5091647;28;20039;-76
2023/05/04 04:27:35;;;;;;;30.97;13.23;;;;;;;;;;5091799;28;20118;-76
2023/05/04 04:30:02;;;;;;;21.00;10.83;;;;;;;;;;5091265;28;20071;-76
2023/05/04 04:32:28;;;;;;;19.13;10.97;;;;;;;;;;5105386;28;20058;-77
2023/05/04 04:34:54;;;;;;;23.20;11.80;;;;;;;;;;5111786;28;20028;-76
2023/05/04 04:37:19;;;;;;;19.93;10.63;;;;;;;;;;5111031;28;20452;-76
2023/05/04 04:39:46;;;;;;;16.50;10.67;;;;;;;;;;5111674;28;20102;-78
2023/05/04 04:42:12;;;;;;;14.23;10.13;;;;;;;;;;5111813;28;20459;-77
2023/05/04 04:44:38;;;;;;;16.47;10.27;;;;;;;;;;5111901;28;20127;-76
2023/05/04 04:47:05;;;;;;;22.33;11.53;;;;;;;;;;5107703;28;20535;-76
2023/05/04 04:49:31;;;;;;;20.93;11.10;;;;;;;;;;5111880;28;20020;-74
2023/05/04 04:51:56;;;;;;;18.00;11.33;;;;;;;;;;5110080;28;20020;-76
2023/05/04 04:54:22;;;;;;;15.33;10.33;;;;;;;;;;5111759;28;20039;-77
2023/05/04 04:56:47;;;;;;;20.37;12.37;;;;;;;;;;5103762;28;20042;-78
2023/05/04 04:59:13;;;;;;;17.47;9.93;;;;;;;;;;5089533;28;20542;-75
2023/05/04 05:01:40;;;;;;;21.07;11.50;;;;;;;;;;5089429;28;20027;-76
2023/05/04 05:04:06;;;;;;;22.10;11.50;;;;;;;;;;5090738;28;20023;-75
2023/05/04 05:06:32;;;;;;;17.30;11.63;;;;;;;;;;5095233;28;20430;-77
2023/05/04 05:08:58;;;;;;;25.57;11.33;;;;;;;;;;5110893;28;20034;-76
2023/05/04 05:11:23;;;;;;;20.47;10.70;;;;;;;;;;5109773;28;20058;-79
2023/05/04 05:13:49;;;;;;;21.43;10.93;;;;;;;;;;5095110;28;20024;-77
2023/05/04 05:16:15;;;;;;;20.80;11.07;;;;;;;;;;5091650;28;20856;-76
2023/05/04 05:18:41;;;;;;;24.30;12.17;;;;;;;;;;5094069;28;20054;-78
2023/05/04 05:21:08;;;;;;;17.03;11.70;;;;;;;;;;5090702;28;20551;-77
2023/05/04 05:23:34;;;;;;;23.00;11.67;;;;;;;;;;5104258;28;20482;-78
2023/05/04 05:26:00;;;;;;;17.30;11.13;;;;;;;;;;5111197;28;20027;-80
2023/05/04 05:28:26;;;;;;;21.87;12.00;;;;;;;;;;5109418;28;20470;-77
2023/05/04 05:30:51;;;;;;;22.57;12.30;;;;;;;;;;5110861;28;20031;-77
2023/05/04 05:33:17;;;;;;;18.23;11.47;;;;;;;;;;5111486;28;20032;-78
2023/05/04 05:35:43;;;;;;;23.60;13.83;;;;;;;;;;5110108;28;20070;-79
2023/05/04 05:38:09;;;;;;;20.80;13.47;;;;;;;;;;5096152;28;20467;-78
2023/05/04 05:40:35;;;;;;;19.73;12.33;;;;;;;;;;5100042;28;20032;-77
2023/05/04 05:43:01;;;;;;;21.07;11.97;;;;;;;;;;5110768;28;20115;-77
2023/05/04 05:45:27;;;;;;;19.57;11.37;;;;;;;;;;5094635;28;20035;-76
2023/05/04 05:47:53;;;;;;;21.60;12.17;;;;;;;;;;5096016;28;20047;-76
2023/05/04 05:50:19;;;;;;;25.30;12.17;;;;;;;;;;5102811;28;20032;-78
2023/05/04 05:52:44;;;;;;;21.10;12.90;;;;;;;;;;5089331;28;20095;-77
2023/05/04 05:55:10;;;;;;;18.87;10.93;;;;;;;;;;5090392;28;20036;-77
2023/05/04 05:57:36;;;;;;;25.43;11.60;;;;;;;;;;5089031;28;20398;-77
2023/05/04 06:00:01;;;;;;;21.67;12.07;;;;;;;;;;5089080;28;20426;-77
2023/05/04 06:02:27;;;;;;;22.00;11.50;;;;;;;;;;5089383;28;20103;-79
2023/05/04 06:04:52;;;;;;;20.17;11.23;;;;;;;;;;5092187;28;20447;-78
2023/05/04 06:07:18;;;;;;;20.63;12.63;;;;;;;;;;5090148;28;20024;-78
2023/05/04 06:09:44;;;;;;;26.20;11.37;;;;;;;;;;5110717;28;20709;-76
2023/05/04 06:12:13;;;;;;;18.60;11.77;;;;;;;;;;5091956;28;20028;-77
2023/05/04 06:14:40;;;;;;;20.60;12.27;;;;;;;;;;5074363;28;20021;-79
2023/05/04 06:17:05;;;;;;;22.70;12.67;;;;;;;;;;5091357;28;20456;-78
2023/05/04 06:19:36;;;;;;;23.47;11.87;;;;;;;;;;5085426;28;20111;-79
2023/05/04 06:22:02;;;;;;;21.50;12.40;;;;;;;;;;5075790;28;20040;-79
2023/05/04 06:24:28;;;;;;;23.80;12.47;;;;;;;;;;5076102;28;20044;-77
2023/05/04 06:26:55;;;;;;;25.83;12.40;;;;;;;;;;5075265;28;20072;-77
2023/05/04 06:29:20;;;;;;;22.70;12.20;;;;;;;;;;5076092;28;20046;-77
2023/05/04 06:31:46;;;;;;;27.77;12.77;;;;;;;;;;5082934;28;20653;-80
2023/05/04 06:34:12;;;;;;;20.37;11.93;;;;;;;;;;5089017;28;20696;-78
2023/05/04 06:36:38;;;;;;;21.87;12.17;;;;;;;;;;5080923;28;20047;-80
2023/05/04 06:39:04;;;;;;;22.00;11.73;;;;;;;;;;5074353;28;20112;-78
2023/05/04 06:41:30;;;;;;;21.50;13.83;;;;;;;;;;5079713;28;20028;-77
2023/05/04 06:43:56;;;;;;;25.23;13.17;;;;;;;;;;5073265;28;20033;-79
2023/05/04 06:46:21;;;;;;;22.33;12.93;;;;;;;;;;5074668;28;20484;-77
2023/05/04 06:48:47;;;;;;;23.00;12.77;;;;;;;;;;5071943;28;20061;-78
2023/05/04 06:51:13;;;;;;;21.88;11.35;;;;;;;;;;5070111;28;20132;-78
2023/05/04 06:53:38;;;;;;;23.75;11.55;;;;;;;;;;5073076;28;20029;-79
2023/05/04 06:56:06;;;;;;;24.83;11.65;;;;;;;;;;5065483;28;20629;-79
2023/05/04 06:58:32;;;;;;;20.00;12.38;;;;;;;;;;5077404;28;20547;-80
2023/05/04 07:00:57;;;;;;;24.17;12.90;;;;;;;;;;5075982;28;20025;-78
2023/05/04 07:03:23;;;;;;;23.55;11.20;;;;;;;;;;5072663;28;20888;-76
2023/05/04 07:05:50;;;;;;;25.92;12.25;;;;;;;;;;5079526;28;20044;-77
2023/05/04 07:08:19;;;;;;;26.10;11.07;;;;;;;;;;5082563;28;20092;-78
2023/05/04 07:10:45;;;;;;;30.23;11.73;;;;;;;;;;5087049;28;20043;-78
2023/05/04 07:13:11;;;;;;;27.75;11.82;;;;;;;;;;5074394;28;20793;-82
2023/05/04 07:15:37;;;;;;;21.33;12.45;;;;;;;;;;5095465;28;20102;-80
2023/05/04 07:18:03;;;;;;;20.90;11.02;;;;;;;;;;5062257;28;20033;-81
2023/05/04 07:20:29;;;;;;;19.25;10.00;;;;;;;;;;5077179;28;20031;-80
2023/05/04 07:22:55;;;;;;;22.73;9.18;;;;;;;;;;5080740;28;20024;-81
2023/05/04 07:25:25;;;;;;;21.27;10.13;;;;;;;;;;5077016;28;20028;-80
2023/05/04 07:27:52;;;;;;;17.10;10.80;;;;;;;;;;5080400;28;20433;-81
2023/05/04 07:30:18;;;;;;;16.58;9.45;;;;;;;;;;5080862;28;20028;-80
2023/05/04 07:32:44;;;;;;;15.68;9.88;;;;;;;;;;5079470;28;20107;-81
2023/05/04 07:35:10;;;;;;;13.38;9.15;;;;;;;;;;5084447;28;20143;-81
2023/05/04 07:37:35;;;;;;;18.20;11.00;;;;;;;;;;5081697;28;20091;-81
2023/05/04 07:40:04;;;;;;;21.55;10.13;;;;;;;;;;5079063;28;20495;-80
2023/05/04 07:42:30;;;;;;;16.95;9.77;;;;;;;;;;5077889;28;20086;-78
2023/05/04 07:44:56;;;;;;;21.85;10.38;;;;;;;;;;5083929;28;20066;-78
2023/05/04 07:47:22;;;;;;;21.85;9.40;;;;;;;;;;5076444;28;20157;-80
2023/05/04 07:49:48;;;;;;;15.88;9.00;;;;;;;;;;5082582;28;20028;-80
2023/05/04 07:52:13;;;;;;;30.65;10.27;;;;;;;;;;5093434;28;20031;-79
2023/05/04 07:54:39;;;;;;;14.63;7.78;;;;;;;;;;5086298;28;20028;-79
2023/05/04 07:57:06;;;;;;;14.35;7.55;;;;;;;;;;5080991;28;20499;-77
2023/05/04 07:59:32;;;;;;;18.30;8.07;;;;;;;;;;5083176;28;20034;-80
2023/05/04 08:01:58;;;;;;;12.98;7.63;;;;;;;;;;5079651;28;20028;-81
2023/05/04 08:04:23;;;;;;;13.38;6.30;;;;;;;;;;5083926;28;20039;-79
2023/05/04 08:06:49;;;;;;;13.85;6.47;;;;;;;;;;5073868;28;20025;-78
2023/05/04 08:09:15;;;;;;;8.60;4.47;;;;;;;;;;5081174;28;20372;-80
2023/05/04 08:11:41;;;;;;;7.40;4.15;;;;;;;;;;5085522;28;20028;-79
2023/05/04 08:14:07;;;;;;;11.23;5.20;;;;;;;;;;5082895;28;20438;-80
2023/05/04 08:16:33;;;;;;;13.93;6.25;;;;;;;;;;5072609;28;20091;-79
2023/05/04 08:19:00;;;;;;;14.07;6.78;;;;;;;;;;5075795;28;20033;-81
2023/05/04 08:21:26;;;;;;;13.25;6.00;;;;;;;;;;5080433;28;20029;-81
2023/05/04 08:23:52;;;;;;;9.95;5.85;;;;;;;;;;5075840;28;20025;-78
2023/05/04 08:26:18;;;;;;;14.07;7.00;;;;;;;;;;5069528;28;20214;-80
2023/05/04 08:29:06;;;;;;;10.90;6.55;;;;;;;;;;5073413;28;21397;-85
2023/05/04 08:31:33;;;;;;;13.10;6.30;;;;;;;;;;5073854;28;20325;-81
2023/05/04 08:33:58;;;;;;;11.77;5.68;;;;;;;;;;5072803;28;20111;-78
2023/05/04 08:36:25;;;;;;;14.00;6.88;;;;;;;;;;5081347;28;20103;-80
2023/05/04 08:38:52;;;;;;;11.32;5.40;;;;;;;;;;5075082;28;20040;-79
2023/05/04 08:41:18;;;;;;;12.50;6.45;;;;;;;;;;5079543;28;20016;-77
2023/05/04 08:43:45;;;;;;;13.10;6.65;;;;;;;;;;5081307;28;20495;-79
2023/05/04 08:46:12;;;;;;;9.55;4.50;;;;;;;;;;5084195;28;20028;-78
2023/05/04 08:48:37;;;;;;;8.43;5.25;;;;;;;;;;5077553;28;20727;-78
2023/05/04 08:51:05;;;;;;;13.77;5.68;;;;;;;;;;5076618;28;20035;-80
2023/05/04 08:53:35;;;;;;;7.25;4.32;;;;;;;;;;5139806;22;20049;-78
2023/05/04 08:59:42;;;;;;;;;;;;;;;;;;;;;
2023/05/04 09:02:12;;;;;;;10.20;5.20;;;;;;;;;;5058778;28;20040;-78
2023/05/04 09:04:38;;;;;;;10.70;4.88;;;;;;;;;;5070906;28;20028;-80
2023/05/04 09:07:03;;;;;;;12.82;4.90;;;;;;;;;;5052984;28;20058;-79
2023/05/04 09:09:30;;;;;;;10.07;5.80;;;;;;;;;;5073103;28;20024;-78
2023/05/04 09:11:57;;;;;;;11.98;4.50;;;;;;;;;;5052295;28;20105;-79
2023/05/04 09:14:34;;;;;;;9.13;5.35;;;;;;;;;;5075509;28;20017;-80
2023/05/04 09:17:16;;;;;;;12.73;7.25;;;;;;;;;;5068415;28;20028;-79
2023/05/04 09:19:43;;;;;;;14.63;6.55;;;;;;;;;;5064571;28;20074;-81
2023/05/04 09:22:16;;;;;;;14.27;5.10;;;;;;;;;;5064965;28;20031;-83
2023/05/04 09:24:43;;;;;;;9.20;5.55;;;;;;;;;;5062152;28;20494;-80
2023/05/04 09:27:13;;;;;;;15.80;5.32;;;;;;;;;;5052707;28;20468;-79
2023/05/04 09:29:41;;;;;;;10.10;4.25;;;;;;;;;;5051587;28;20047;-80
2023/05/04 09:32:12;;;;;;;10.73;4.30;;;;;;;;;;5046949;28;20139;-80
2023/05/04 09:35:06;;;;;;;9.65;4.40;;;;;;;;;;5045439;28;20036;-79
2023/05/04 09:37:45;;;;;;;8.20;4.45;;;;;;;;;;5070305;28;20496;-77
2023/05/04 09:40:17;;;;;;;8.52;4.88;;;;;;;;;;5040889;28;20024;-80
2023/05/04 09:42:43;;;;;;;18.92;5.40;;;;;;;;;;5043543;28;20051;-79
2023/05/04 09:45:09;;;;;;;21.55;9.60;;;;;;;;;;5072655;28;20054;-78
2023/05/04 09:47:39;;;;;;;8.73;4.22;;;;;;;;;;5064580;28;20031;-79
2023/05/04 09:50:21;;;;;;;5.35;3.58;;;;;;;;;;5067505;28;20024;-79
2023/05/04 09:52:47;;;;;;;;;;;;;;;;;;5051612;28;20031;-81
2023/05/04 09:55:33;;;;;;;9.40;4.65;;;;;;;;;;5088859;28;19919;-79
2023/05/04 09:58:00;;;;;;;7.85;4.05;;;;;;;;;;5063048;28;20032;-79
2023/05/04 10:00:27;;;;;;;6.50;3.58;;;;;;;;;;5069949;28;20036;-79
2023/05/04 10:02:53;;;;;;;6.25;3.50;;;;;;;;;;5085806;28;20032;-79
2023/05/04 10:05:20;;;;;;;11.30;4.20;;;;;;;;;;5067885;28;20031;-79
2023/05/04 10:07:46;;;;;;;7.75;3.60;;;;;;;;;;5067710;28;20753;-78
2023/05/04 10:10:14;;;;;;;5.07;4.05;;;;;;;;;;5083053;28;20019;-82
2023/05/04 10:12:39;;;;;;;12.63;3.83;;;;;;;;;;5068650;28;20139;-79
2023/05/04 10:15:13;;;;;;;8.02;4.07;;;;;;;;;;5068698;28;20093;-80
2023/05/04 10:18:02;;;;;;;9.65;3.80;;;;;;;;;;5052437;28;20027;-78
2023/05/04 10:20:37;;;;;;;14.50;4.07;;;;;;;;;;5081910;28;20124;-82
2023/05/04 10:23:09;;;;;;;5.40;3.22;;;;;;;;;;5083899;28;20412;-80
2023/05/04 10:26:15;;;;;;;5.88;3.00;;;;;;;;;;5074106;28;20028;-81
2023/05/04 10:28:46;;;;;;;8.13;4.60;;;;;;;;;;5064624;28;20049;-79
2023/05/04 10:31:13;;;;;;;8.50;4.60;;;;;;;;;;5071871;28;20468;-79
2023/05/04 10:33:42;;;;;;;8.35;4.20;;;;;;;;;;5064521;28;20042;-79
2023/05/04 10:36:09;;;;;;;8.93;4.25;;;;;;;;;;5074006;28;20424;-79
2023/05/04 10:38:38;;;;;;;9.18;4.07;;;;;;;;;;5066475;28;20036;-78
2023/05/04 10:41:24;;;;;;;8.40;4.00;;;;;;;;;;5075947;28;20031;-79
2023/05/04 10:43:52;;;;;;;7.32;3.70;;;;;;;;;;5086589;28;20032;-77
2023/05/04 10:46:22;;;;;;;6.22;4.15;;;;;;;;;;5080299;28;20525;-76
2023/05/04 10:48:49;;;;;;;7.80;4.30;;;;;;;;;;5058581;28;20151;-81
2023/05/04 10:51:23;;;;;;;6.88;3.63;;;;;;;;;;5098617;28;20069;-78
2023/05/04 10:53:49;;;;;;;7.40;4.07;;;;;;;;;;5076909;23;20071;-78
2023/05/04 10:56:26;;;;;;;8.93;4.43;;;;;;;;;;5096379;28;20051;-77
2023/05/04 10:58:52;;;;;;;7.03;4.28;;;;;;;;;;5087139;28;20040;-76
2023/05/04 11:01:20;;;;;;;10.88;4.05;;;;;;;;;;5092809;28;20038;-78
2023/05/04 11:03:47;;;;;;;11.95;4.78;;;;;;;;;;5092514;28;20064;-79
2023/05/04 11:06:23;;;;;;;11.50;5.00;;;;;;;;;;5088446;28;20025;-79
2023/05/04 11:09:00;;;;;;;8.55;4.40;;;;;;;;;;5091843;28;20039;-79
2023/05/04 11:11:26;;;;;;;7.68;3.67;;;;;;;;;;5091252;28;20028;-79
2023/05/04 11:14:02;;;;;;;11.20;4.90;;;;;;;;;;5097929;28;20463;-79
2023/05/04 11:16:27;;;;;;;10.77;4.40;;;;;;;;;;5092563;28;20036;-78
2023/05/04 11:19:08;;;;;;;6.30;3.08;;;;;;;;;;5095286;28;20044;-80
2023/05/04 11:21:33;;;;;;;10.82;4.22;;;;;;;;;;5090094;28;20430;-79
2023/05/04 11:24:00;;;;;;;7.22;3.72;;;;;;;;;;5084395;28;20043;-80
2023/05/04 11:26:27;;;;;;;7.63;4.13;;;;;;;;;;5087819;28;20028;-79
2023/05/04 11:28:52;;;;;;;7.45;3.90;;;;;;;;;;5080006;28;20039;-78
2023/05/04 11:31:20;;;;;;;11.20;3.80;;;;;;;;;;5086614;28;20024;-80
2023/05/04 11:33:53;;;;;;;10.77;3.67;;;;;;;;;;5083743;28;20024;-77
2023/05/04 11:36:21;;;;;;;6.97;3.67;;;;;;;;;;5082572;28;20016;-79
2023/05/04 11:38:48;;;;;;;7.28;3.58;;;;;;;;;;5085301;28;20039;-78
2023/05/04 11:41:14;;;;;;;10.15;3.47;;;;;;;;;;5088206;28;20410;-78
2023/05/04 11:43:43;;;;;;;8.57;3.47;;;;;;;;;;5093958;28;20016;-79
2023/05/04 11:47:13;;;;;;;;;;;;;;;;;;;;;
2023/05/04 11:49:13;;;;;;;6.95;3.65;;;;;;;;;;5074877;28;20035;-77
2023/05/04 11:51:39;;;;;;;10.90;3.55;;;;;;;;;;5092341;28;20016;-77
2023/05/04 11:54:06;;;;;;;5.93;3.83;;;;;;;;;;5082084;28;20051;-78
2023/05/04 11:56:41;;;;;;;10.70;3.40;;;;;;;;;;5095705;28;20495;-81
2023/05/04 11:59:09;;;;;;;5.18;3.50;;;;;;;;;;5076203;28;20127;-78
2023/05/04 12:01:35;;;;;;;7.53;3.60;;;;;;;;;;5089796;28;20047;-78
2023/05/04 12:04:01;;;;;;;5.50;3.92;;;;;;;;;;5070677;28;20115;-81
2023/05/04 12:06:31;;;;;;;19.85;5.65;;;;;;;;;;5092574;28;20062;-79
2023/05/04 12:09:04;;;;;;;13.38;4.10;;;;;;;;;;5072728;28;20428;-79
2023/05/04 12:11:30;;;;;;;15.02;4.15;;;;;;;;;;5072953;28;20479;-80
2023/05/04 12:14:05;;;;;;;8.10;3.75;;;;;;;;;;5091343;28;20050;-80
2023/05/04 12:16:31;;;;;;;6.18;3.80;;;;;;;;;;5067484;28;20054;-78
2023/05/04 12:19:05;;;;;;;9.93;4.03;;;;;;;;;;5091199;28;20031;-79
2023/05/04 12:21:34;;;;;;;11.18;3.58;;;;;;;;;;5072043;28;20062;-79
2023/05/04 12:24:02;;;;;;;9.13;3.90;;;;;;;;;;5071200;28;20028;-78
2023/05/04 12:26:29;;;;;;;8.15;3.53;;;;;;;;;;5092243;28;20023;-79
2023/05/04 12:28:55;;;;;;;6.15;3.55;;;;;;;;;;5078597;28;20504;-80
2023/05/04 12:31:21;;;;;;;5.63;3.42;;;;;;;;;;5090136;28;20028;-79
2023/05/04 12:33:49;;;;;;;8.23;3.17;;;;;;;;;;5094737;28;20032;-81
2023/05/04 12:36:16;;;;;;;5.45;3.10;;;;;;;;;;5092059;28;20390;-83
2023/05/04 12:38:42;;;;;;;6.65;4.03;;;;;;;;;;5091677;28;20032;-81
2023/05/04 12:41:09;;;;;;;5.55;3.13;;;;;;;;;;5088337;28;20123;-80
2023/05/04 12:43:39;;;;;;;13.00;4.20;;;;;;;;;;5095312;28;20089;-80
2023/05/04 12:46:06;;;;;;;11.57;4.20;;;;;;;;;;5088783;28;20223;-80
2023/05/04 12:48:32;;;;;;;11.07;4.63;;;;;;;;;;5074296;28;20046;-80
2023/05/04 12:50:58;;;;;;;9.43;4.22;;;;;;;;;;5059127;28;20068;-81
2023/05/04 12:53:35;;;;;;;9.55;3.70;;;;;;;;;;5058954;28;20071;-79
2023/05/04 12:56:02;;;;;;;9.50;4.03;;;;;;;;;;5060998;28;20028;-81
2023/05/04 12:58:33;;;;;;;8.45;3.40;;;;;;;;;;5061546;28;20028;-79
2023/05/04 13:00:59;;;;;;;9.35;3.78;;;;;;;;;;5078743;28;20035;-79
2023/05/04 13:03:25;;;;;;;6.30;3.35;;;;;;;;;;5059596;28;20059;-80
2023/05/04 13:05:51;;;;;;;6.45;3.22;;;;;;;;;;5059317;28;20034;-83
2023/05/04 13:08:18;;;;;;;4.85;3.33;;;;;;;;;;5075229;28;20032;-79
2023/05/04 13:10:45;;;;;;;5.85;3.28;;;;;;;;;;5078974;28;20008;-80
2023/05/04 13:13:12;;;;;;;9.90;3.85;;;;;;;;;;5077224;28;20093;-81
2023/05/04 13:15:38;;;;;;;9.98;3.20;;;;;;;;;;5060544;28;20028;-80
2023/05/04 13:18:04;;;;;;;12.48;3.28;;;;;;;;;;5056940;28;20424;-81
2023/05/04 13:20:30;;;;;;;8.18;3.30;;;;;;;;;;5075378;28;20048;-79
2023/05/04 13:22:55;;;;;;;9.55;3.50;;;;;;;;;;5056659;28;20059;-80
2023/05/04 13:25:21;;;;;;;4.57;2.95;;;;;;;;;;5072803;28;20025;-81
2023/05/04 13:27:47;;;;;;;7.10;3.00;;;;;;;;;;5077707;28;20499;-81
2023/05/04 13:30:13;;;;;;;7.00;3.10;;;;;;;;;;5056021;28;20024;-80
2023/05/04 13:32:38;;;;;;;9.02;3.13;;;;;;;;;;5056593;28;20024;-83
2023/05/04 13:35:05;;;;;;;9.10;3.22;;;;;;;;;;5074822;28;20020;-80
2023/05/04 13:37:31;;;;;;;5.13;3.22;;;;;;;;;;5071236;28;20051;-80
2023/05/04 13:40:00;;;;;;;8.98;3.35;;;;;;;;;;5076523;28;20051;-79
2023/05/04 13:42:26;;;;;;;6.60;3.00;;;;;;;;;;5077981;28;20559;-83
2023/05/04 13:44:54;;;;;;;7.32;3.08;;;;;;;;;;5095234;28;20016;-80
2023/05/04 13:47:23;;;;;;;9.70;4.10;;;;;;;;;;5078740;28;20031;-81
2023/05/04 13:49:49;;;;;;;8.95;3.22;;;;;;;;;;5074555;28;20639;-80
2023/05/04 13:52:14;;;;;;;6.25;3.42;;;;;;;;;;5081253;28;20376;-82
2023/05/04 13:54:41;;;;;;;6.93;3.15;;;;;;;;;;5054889;28;20098;-82
2023/05/04 13:57:06;;;;;;;5.70;4.28;;;;;;;;;;5056711;28;20044;-81
2023/05/04 13:59:33;;;;;;;17.98;4.55;;;;;;;;;;5055085;28;20021;-81
2023/05/04 14:01:58;;;;;;;11.25;3.20;;;;;;;;;;5073593;28;20032;-79
2023/05/04 14:04:24;;;;;;;10.57;3.72;;;;;;;;;;5055088;28;20438;-80
2023/05/04 14:06:50;;;;;;;10.05;3.03;;;;;;;;;;5063548;28;20057;-79
2023/05/04 14:09:17;;;;;;;5.88;2.95;;;;;;;;;;5092879;28;20086;-80
2023/05/04 14:11:43;;;;;;;6.45;3.03;;;;;;;;;;5073382;28;20058;-83
2023/05/04 14:14:08;;;;;;;5.03;3.00;;;;;;;;;;5092066;28;20063;-80
2023/05/04 14:16:34;;;;;;;13.18;4.13;;;;;;;;;;5052981;28;20151;-79
2023/05/04 14:19:00;;;;;;;9.63;3.25;;;;;;;;;;5054027;28;20388;-81
2023/05/04 14:21:26;;;;;;;4.68;2.90;;;;;;;;;;5074537;28;20033;-79
2023/05/04 14:23:52;;;;;;;6.38;3.35;;;;;;;;;;5072740;28;20028;-80
2023/05/04 14:26:18;;;;;;;11.65;3.40;;;;;;;;;;5072802;28;20043;-81
2023/05/04 14:28:45;;;;;;;4.65;2.60;;;;;;;;;;5055342;28;20037;-79
2023/05/04 14:31:11;;;;;;;10.27;3.20;;;;;;;;;;5077405;28;20353;-79
2023/05/04 14:33:38;;;;;;;8.65;2.95;;;;;;;;;;5097321;28;20093;-79
2023/05/04 14:36:04;;;;;;;11.05;4.25;;;;;;;;;;5094816;28;20020;-82